sensor_id;sensor_type;location;lat;lon;timestamp;pressure;altitude;pressure_sealevel;temperature;humidity
8641;BME280;4358;42.100;25.222;2022-11-12T00:00:54;101510.84;;;11.32;100.00
8641;BME280;4358;42.100;25.222;2022-11-12T00:03:23;101505.50;;;11.32;100.00
8641;BME280;4358;42.100;25.222;2022-11-12T00:05:50;101502.16;;;11.28;100.00
8641;BME280;4358;42.100;25.222;2022-11-12T00:08:18;101503.06;;;11.27;100.00
8641;BME280;4358;42.100;25.222;2022-11-12T00:10:45;101499.53;;;11.27;100.00
8641;BME280;4358;42.100;25.222;2022-11-12T00:13:12;101496.13;;;11.25;100.00
8641;BME280;4358;42.100;25.222;2022-11-12T00:15:40;101497.97;;;11.23;100.00
8641;BME280;4358;42.100;25.222;2022-11-12T00:18:07;101494.38;;;11.24;100.00
8641;BME280;4358;42.100;25.222;2022-11-12T00:20:34;101497.97;;;11.23;100.00
8641;BME280;4358;42.100;25.222;2022-11-12T00:23:01;101497.91;;;11.24;100.00
8641;BME280;4358;42.100;25.222;2022-11-12T00:25:28;101479.78;;;11.14;100.00
8641;BME280;4358;42.100;25.222;2022-11-12T00:28:00;101490.31;;;11.15;100.00
8641;BME280;4358;42.100;25.222;2022-11-12T00:30:27;101485.75;;;11.19;100.00
8641;BME280;4358;42.100;25.222;2022-11-12T00:32:55;101489.59;;;11.12;100.00
8641;BME280;4358;42.100;25.222;2022-11-12T00:35:22;101487.09;;;11.09;100.00
8641;BME280;4358;42.100;25.222;2022-11-12T00:37:52;101480.69;;;11.13;100.00
8641;BME280;4358;42.100;25.222;2022-11-12T00:40:19;101480.09;;;10.86;100.00
8641;BME280;4358;42.100;25.222;2022-11-12T00:42:46;101475.50;;;10.89;100.00
8641;BME280;4358;42.100;25.222;2022-11-12T00:45:13;101473.94;;;10.85;100.00
8641;BME280;4358;42.100;25.222;2022-11-12T00:47:40;101477.41;;;10.87;100.00
8641;BME280;4358;42.100;25.222;2022-11-12T00:50:09;101478.25;;;10.88;100.00
8641;BME280;4358;42.100;25.222;2022-11-12T00:52:36;101474.66;;;10.89;100.00
8641;BME280;4358;42.100;25.222;2022-11-12T00:55:03;101475.41;;;10.92;100.00
8641;BME280;4358;42.100;25.222;2022-11-12T00:57:30;101479.59;;;10.98;100.00
8641;BME280;4358;42.100;25.222;2022-11-12T00:59:57;101477.66;;;11.01;100.00
8641;BME280;4358;42.100;25.222;2022-11-12T01:02:24;101474.06;;;11.02;100.00
8641;BME280;4358;42.100;25.222;2022-11-12T01:04:50;101470.34;;;11.07;100.00
8641;BME280;4358;42.100;25.222;2022-11-12T01:07:18;101477.13;;;11.14;100.00
8641;BME280;4358;42.100;25.222;2022-11-12T01:09:45;101475.22;;;11.16;100.00
8641;BME280;4358;42.100;25.222;2022-11-12T01:12:12;101478.69;;;11.18;100.00
8641;BME280;4358;42.100;25.222;2022-11-12T01:14:39;101469.19;;;11.12;100.00
8641;BME280;4358;42.100;25.222;2022-11-12T01:17:06;101468.28;;;11.13;100.00
8641;BME280;4358;42.100;25.222;2022-11-12T01:19:33;101467.63;;;11.08;100.00
8641;BME280;4358;42.100;25.222;2022-11-12T01:22:00;101461.28;;;11.11;100.00
8641;BME280;4358;42.100;25.222;2022-11-12T01:24:28;101466.59;;;11.11;100.00
8641;BME280;4358;42.100;25.222;2022-11-12T01:26:54;101468.22;;;11.15;100.00
8641;BME280;4358;42.100;25.222;2022-11-12T01:29:21;101469.47;;;11.06;100.00
8641;BME280;4358;42.100;25.222;2022-11-12T01:31:48;101462.38;;;11.07;100.00
8641;BME280;4358;42.100;25.222;2022-11-12T01:34:15;101457.06;;;11.07;100.00
8641;BME280;4358;42.100;25.222;2022-11-12T01:36:42;101456.00;;;10.90;100.00
8641;BME280;4358;42.100;25.222;2022-11-12T01:39:09;101456.16;;;10.87;100.00
8641;BME280;4358;42.100;25.222;2022-11-12T01:41:38;101446.84;;;10.77;100.00
8641;BME280;4358;42.100;25.222;2022-11-12T01:44:16;101450.53;;;10.73;100.00
8641;BME280;4358;42.100;25.222;2022-11-12T01:46:54;101452.69;;;10.65;100.00
8641;BME280;4358;42.100;25.222;2022-11-12T01:49:27;101455.72;;;10.56;100.00
8641;BME280;4358;42.100;25.222;2022-11-12T01:51:57;101456.66;;;10.55;100.00
8641;BME280;4358;42.100;25.222;2022-11-12T01:54:29;101450.44;;;10.56;100.00
8641;BME280;4358;42.100;25.222;2022-11-12T01:56:58;101463.50;;;10.60;100.00
8641;BME280;4358;42.100;25.222;2022-11-12T01:59:29;101456.16;;;10.67;100.00
8641;BME280;4358;42.100;25.222;2022-11-12T02:01:58;101463.03;;;10.71;100.00
8641;BME280;4358;42.100;25.222;2022-11-12T02:04:25;101447.97;;;10.51;100.00
8641;BME280;4358;42.100;25.222;2022-11-12T02:06:54;101454.41;;;10.46;100.00
8641;BME280;4358;42.100;25.222;2022-11-12T02:09:23;101446.25;;;10.29;100.00
8641;BME280;4358;42.100;25.222;2022-11-12T02:11:49;101450.50;;;10.33;100.00
8641;BME280;4358;42.100;25.222;2022-11-12T02:14:18;101453.72;;;10.41;100.00
8641;BME280;4358;42.100;25.222;2022-11-12T02:16:44;101450.72;;;10.48;100.00
8641;BME280;4358;42.100;25.222;2022-11-12T02:19:15;101444.94;;;10.39;100.00
8641;BME280;4358;42.100;25.222;2022-11-12T02:21:43;101457.31;;;10.40;100.00
8641;BME280;4358;42.100;25.222;2022-11-12T02:24:32;101451.84;;;10.43;100.00
8641;BME280;4358;42.100;25.222;2022-11-12T02:27:02;101459.13;;;10.38;100.00
8641;BME280;4358;42.100;25.222;2022-11-12T02:29:30;101465.25;;;10.40;100.00
8641;BME280;4358;42.100;25.222;2022-11-12T02:31:57;101450.75;;;10.27;100.00
8641;BME280;4358;42.100;25.222;2022-11-12T02:34:23;101463.59;;;10.37;100.00
8641;BME280;4358;42.100;25.222;2022-11-12T02:36:52;101459.03;;;10.41;100.00
8641;BME280;4358;42.100;25.222;2022-11-12T02:39:18;101458.88;;;10.44;100.00
8641;BME280;4358;42.100;25.222;2022-11-12T02:41:45;101459.75;;;10.44;100.00
8641;BME280;4358;42.100;25.222;2022-11-12T02:44:12;101457.91;;;10.46;100.00
8641;BME280;4358;42.100;25.222;2022-11-12T02:46:39;101452.72;;;10.43;100.00
8641;BME280;4358;42.100;25.222;2022-11-12T02:49:06;101465.06;;;10.44;100.00
8641;BME280;4358;42.100;25.222;2022-11-12T02:51:33;101458.03;;;10.43;100.00
8641;BME280;4358;42.100;25.222;2022-11-12T02:54:01;101459.38;;;10.53;100.00
8641;BME280;4358;42.100;25.222;2022-11-12T02:56:28;101454.88;;;10.55;100.00
8641;BME280;4358;42.100;25.222;2022-11-12T02:58:55;101460.03;;;10.58;100.00
8641;BME280;4358;42.100;25.222;2022-11-12T03:01:22;101460.38;;;10.51;100.00
8641;BME280;4358;42.100;25.222;2022-11-12T03:03:49;101458.38;;;10.56;100.00
8641;BME280;4358;42.100;25.222;2022-11-12T03:06:16;101430.03;;;10.36;100.00
8641;BME280;4358;42.100;25.222;2022-11-12T03:08:43;101454.72;;;10.58;100.00
8641;BME280;4358;42.100;25.222;2022-11-12T03:11:12;101469.47;;;10.66;100.00
8641;BME280;4358;42.100;25.222;2022-11-12T03:13:40;101471.31;;;10.63;100.00
8641;BME280;4358;42.100;25.222;2022-11-12T03:16:07;101467.03;;;10.61;100.00
8641;BME280;4358;42.100;25.222;2022-11-12T03:18:34;101477.63;;;10.61;100.00
8641;BME280;4358;42.100;25.222;2022-11-12T03:21:02;101475.72;;;10.65;100.00
8641;BME280;4358;42.100;25.222;2022-11-12T03:23:29;101473.78;;;10.68;100.00
8641;BME280;4358;42.100;25.222;2022-11-12T03:25:56;101475.50;;;10.69;100.00
8641;BME280;4358;42.100;25.222;2022-11-12T03:28:24;101481.34;;;10.57;100.00
8641;BME280;4358;42.100;25.222;2022-11-12T03:30:56;101474.00;;;10.42;100.00
8641;BME280;4358;42.100;25.222;2022-11-12T03:33:23;101486.97;;;10.49;100.00
8641;BME280;4358;42.100;25.222;2022-11-12T03:35:50;101486.06;;;10.29;100.00
8641;BME280;4358;42.100;25.222;2022-11-12T03:38:17;101478.06;;;10.30;100.00
8641;BME280;4358;42.100;25.222;2022-11-12T03:40:43;101479.69;;;10.33;100.00
8641;BME280;4358;42.100;25.222;2022-11-12T03:43:10;101485.81;;;10.35;100.00
8641;BME280;4358;42.100;25.222;2022-11-12T03:45:38;101487.41;;;10.39;100.00
8641;BME280;4358;42.100;25.222;2022-11-12T03:48:05;101490.59;;;10.47;100.00
8641;BME280;4358;42.100;25.222;2022-11-12T03:50:32;101492.91;;;10.56;100.00
8641;BME280;4358;42.100;25.222;2022-11-12T03:52:59;101493.69;;;10.58;100.00
8641;BME280;4358;42.100;25.222;2022-11-12T03:55:28;101498.88;;;10.61;100.00
8641;BME280;4358;42.100;25.222;2022-11-12T03:57:55;101496.75;;;10.69;100.00
8641;BME280;4358;42.100;25.222;2022-11-12T04:00:23;101503.81;;;10.70;100.00
8641;BME280;4358;42.100;25.222;2022-11-12T04:02:52;101496.91;;;10.66;100.00
8641;BME280;4358;42.100;25.222;2022-11-12T04:05:19;101503.66;;;10.73;100.00
8641;BME280;4358;42.100;25.222;2022-11-12T04:08:05;101500.94;;;10.75;100.00
8641;BME280;4358;42.100;25.222;2022-11-12T04:10:50;101505.47;;;10.73;100.00
8641;BME280;4358;42.100;25.222;2022-11-12T04:13:17;101508.00;;;10.76;100.00
8641;BME280;4358;42.100;25.222;2022-11-12T04:15:57;101507.25;;;10.72;100.00
8641;BME280;4358;42.100;25.222;2022-11-12T04:18:43;101502.72;;;10.74;100.00
8641;BME280;4358;42.100;25.222;2022-11-12T04:21:31;101506.66;;;10.66;100.00
8641;BME280;4358;42.100;25.222;2022-11-12T04:24:15;101510.03;;;10.69;100.00
8641;BME280;4358;42.100;25.222;2022-11-12T04:27:00;101512.56;;;10.72;100.00
8641;BME280;4358;42.100;25.222;2022-11-12T04:29:26;101511.91;;;10.67;100.00
8641;BME280;4358;42.100;25.222;2022-11-12T04:32:11;101507.47;;;10.68;100.00
8641;BME280;4358;42.100;25.222;2022-11-12T04:34:39;101512.69;;;10.69;100.00
8641;BME280;4358;42.100;25.222;2022-11-12T04:37:06;101511.63;;;10.73;100.00
8641;BME280;4358;42.100;25.222;2022-11-12T04:39:33;101513.59;;;10.68;100.00
8641;BME280;4358;42.100;25.222;2022-11-12T04:42:00;101514.56;;;10.67;100.00
8641;BME280;4358;42.100;25.222;2022-11-12T04:44:41;101510.84;;;10.71;100.00
8641;BME280;4358;42.100;25.222;2022-11-12T04:47:31;101508.19;;;10.71;100.00
8641;BME280;4358;42.100;25.222;2022-11-12T04:50:01;101507.13;;;10.75;100.00
8641;BME280;4358;42.100;25.222;2022-11-12T04:52:28;101513.44;;;10.73;100.00
8641;BME280;4358;42.100;25.222;2022-11-12T04:54:56;101502.59;;;10.57;100.00
8641;BME280;4358;42.100;25.222;2022-11-12T04:57:23;101500.56;;;10.42;100.00
8641;BME280;4358;42.100;25.222;2022-11-12T04:59:50;101507.06;;;10.35;100.00
8641;BME280;4358;42.100;25.222;2022-11-12T05:02:17;101514.81;;;10.39;100.00
8641;BME280;4358;42.100;25.222;2022-11-12T05:04:44;101516.63;;;10.39;100.00
8641;BME280;4358;42.100;25.222;2022-11-12T05:07:12;101503.47;;;10.36;100.00
8641;BME280;4358;42.100;25.222;2022-11-12T05:09:39;101518.34;;;10.40;100.00
8641;BME280;4358;42.100;25.222;2022-11-12T05:12:07;101519.13;;;10.42;100.00
8641;BME280;4358;42.100;25.222;2022-11-12T05:14:34;101531.19;;;10.50;100.00
8641;BME280;4358;42.100;25.222;2022-11-12T05:17:01;101534.56;;;10.54;100.00
8641;BME280;4358;42.100;25.222;2022-11-12T05:19:28;101522.59;;;10.44;100.00
8641;BME280;4358;42.100;25.222;2022-11-12T05:21:55;101533.50;;;10.58;100.00
8641;BME280;4358;42.100;25.222;2022-11-12T05:24:35;101534.56;;;10.54;100.00
8641;BME280;4358;42.100;25.222;2022-11-12T05:27:05;101534.06;;;10.66;100.00
8641;BME280;4358;42.100;25.222;2022-11-12T05:29:32;101541.13;;;10.67;100.00
8641;BME280;4358;42.100;25.222;2022-11-12T05:31:59;101533.66;;;10.55;100.00
8641;BME280;4358;42.100;25.222;2022-11-12T05:34:26;101538.28;;;10.50;100.00
8641;BME280;4358;42.100;25.222;2022-11-12T05:36:53;101547.16;;;10.49;100.00
8641;BME280;4358;42.100;25.222;2022-11-12T05:39:20;101548.91;;;10.50;100.00
8641;BME280;4358;42.100;25.222;2022-11-12T05:41:49;101560.25;;;10.53;100.00
8641;BME280;4358;42.100;25.222;2022-11-12T05:44:16;101561.13;;;10.54;100.00
8641;BME280;4358;42.100;25.222;2022-11-12T05:46:43;101564.59;;;10.56;100.00
8641;BME280;4358;42.100;25.222;2022-11-12T05:49:10;101563.59;;;10.58;100.00
8641;BME280;4358;42.100;25.222;2022-11-12T05:51:38;101571.19;;;10.46;100.00
8641;BME280;4358;42.100;25.222;2022-11-12T05:54:05;101574.31;;;10.34;100.00
8641;BME280;4358;42.100;25.222;2022-11-12T05:56:32;101577.66;;;10.39;100.00
8641;BME280;4358;42.100;25.222;2022-11-12T05:59:01;101584.38;;;10.26;100.00
8641;BME280;4358;42.100;25.222;2022-11-12T06:01:28;101590.38;;;10.31;100.00
8641;BME280;4358;42.100;25.222;2022-11-12T06:03:55;101585.19;;;10.28;100.00
8641;BME280;4358;42.100;25.222;2022-11-12T06:06:22;101591.34;;;10.28;100.00
8641;BME280;4358;42.100;25.222;2022-11-12T06:08:49;101592.91;;;10.34;100.00
8641;BME280;4358;42.100;25.222;2022-11-12T06:11:16;101592.28;;;10.27;100.00
8641;BME280;4358;42.100;25.222;2022-11-12T06:13:43;101585.78;;;10.11;100.00
8641;BME280;4358;42.100;25.222;2022-11-12T06:16:11;101592.97;;;10.09;100.00
8641;BME280;4358;42.100;25.222;2022-11-12T06:18:38;101589.44;;;10.08;100.00
8641;BME280;4358;42.100;25.222;2022-11-12T06:21:08;101594.28;;;9.97;100.00
8641;BME280;4358;42.100;25.222;2022-11-12T06:23:50;101590.94;;;9.92;100.00
8641;BME280;4358;42.100;25.222;2022-11-12T06:26:17;101580.97;;;9.75;100.00
8641;BME280;4358;42.100;25.222;2022-11-12T06:28:44;101596.78;;;9.78;100.00
8641;BME280;4358;42.100;25.222;2022-11-12T06:31:13;101590.59;;;9.78;100.00
8641;BME280;4358;42.100;25.222;2022-11-12T06:33:40;101599.84;;;9.90;100.00
8641;BME280;4358;42.100;25.222;2022-11-12T06:36:09;101590.34;;;9.84;100.00
8641;BME280;4358;42.100;25.222;2022-11-12T06:38:37;101600.03;;;9.85;100.00
8641;BME280;4358;42.100;25.222;2022-11-12T06:41:06;101598.94;;;9.91;100.00
8641;BME280;4358;42.100;25.222;2022-11-12T06:43:34;101596.25;;;9.92;100.00
8641;BME280;4358;42.100;25.222;2022-11-12T06:46:02;101592.91;;;9.87;100.00
8641;BME280;4358;42.100;25.222;2022-11-12T06:48:30;101598.44;;;9.81;100.00
8641;BME280;4358;42.100;25.222;2022-11-12T06:51:04;101599.25;;;9.83;100.00
8641;BME280;4358;42.100;25.222;2022-11-12T06:53:31;101600.16;;;9.82;100.00
8641;BME280;4358;42.100;25.222;2022-11-12T06:56:00;101594.91;;;9.81;100.00
8641;BME280;4358;42.100;25.222;2022-11-12T06:58:27;101599.47;;;9.77;100.00
8641;BME280;4358;42.100;25.222;2022-11-12T07:00:54;101603.03;;;9.76;100.00
8641;BME280;4358;42.100;25.222;2022-11-12T07:03:21;101595.91;;;9.78;100.00
8641;BME280;4358;42.100;25.222;2022-11-12T07:05:49;101594.13;;;9.78;100.00
8641;BME280;4358;42.100;25.222;2022-11-12T07:08:16;101589.72;;;9.77;100.00
8641;BME280;4358;42.100;25.222;2022-11-12T07:10:42;101587.13;;;9.76;100.00
8641;BME280;4358;42.100;25.222;2022-11-12T07:13:09;101588.91;;;9.75;100.00
8641;BME280;4358;42.100;25.222;2022-11-12T07:15:36;101590.81;;;9.72;100.00
8641;BME280;4358;42.100;25.222;2022-11-12T07:18:03;101588.16;;;9.72;100.00
8641;BME280;4358;42.100;25.222;2022-11-12T07:20:30;101595.31;;;9.70;100.00
8641;BME280;4358;42.100;25.222;2022-11-12T07:23:00;101599.69;;;9.71;100.00
8641;BME280;4358;42.100;25.222;2022-11-12T07:25:27;101603.03;;;9.76;100.00
8641;BME280;4358;42.100;25.222;2022-11-12T07:27:53;101608.22;;;9.79;100.00
8641;BME280;4358;42.100;25.222;2022-11-12T07:30:20;101602.06;;;9.78;100.00
8641;BME280;4358;42.100;25.222;2022-11-12T07:32:47;101604.44;;;9.86;100.00
8641;BME280;4358;42.100;25.222;2022-11-12T07:35:14;101598.31;;;9.84;100.00
8641;BME280;4358;42.100;25.222;2022-11-12T07:37:41;101604.44;;;9.86;100.00
8641;BME280;4358;42.100;25.222;2022-11-12T07:40:10;101612.16;;;9.92;100.00
8641;BME280;4358;42.100;25.222;2022-11-12T07:42:37;101611.28;;;9.92;100.00
8641;BME280;4358;42.100;25.222;2022-11-12T07:45:05;101618.38;;;9.91;100.00
8641;BME280;4358;42.100;25.222;2022-11-12T07:47:32;101614.84;;;9.91;100.00
8641;BME280;4358;42.100;25.222;2022-11-12T07:49:58;101608.50;;;9.95;100.00
8641;BME280;4358;42.100;25.222;2022-11-12T07:52:25;101608.00;;;9.85;100.00
8641;BME280;4358;42.100;25.222;2022-11-12T07:54:52;101614.13;;;9.87;100.00
8641;BME280;4358;42.100;25.222;2022-11-12T07:57:20;101618.16;;;9.97;100.00
8641;BME280;4358;42.100;25.222;2022-11-12T07:59:47;101621.94;;;9.90;100.00
8641;BME280;4358;42.100;25.222;2022-11-12T08:02:14;101617.97;;;9.78;100.00
8641;BME280;4358;42.100;25.222;2022-11-12T08:04:41;101628.72;;;9.74;100.00
8641;BME280;4358;42.100;25.222;2022-11-12T08:07:07;101638.34;;;9.78;100.00
8641;BME280;4358;42.100;25.222;2022-11-12T08:09:35;101643.38;;;9.84;100.00
8641;BME280;4358;42.100;25.222;2022-11-12T08:12:01;101646.50;;;9.95;100.00
8641;BME280;4358;42.100;25.222;2022-11-12T08:14:30;101644.69;;;9.97;100.00
8641;BME280;4358;42.100;25.222;2022-11-12T08:16:56;101638.91;;;9.86;100.00
8641;BME280;4358;42.100;25.222;2022-11-12T08:19:23;101635.69;;;9.78;100.00
8641;BME280;4358;42.100;25.222;2022-11-12T08:21:50;101624.59;;;9.67;100.00
8641;BME280;4358;42.100;25.222;2022-11-12T08:24:17;101636.25;;;9.86;100.00
8641;BME280;4358;42.100;25.222;2022-11-12T08:26:44;101636.47;;;9.80;100.00
8641;BME280;4358;42.100;25.222;2022-11-12T08:29:10;101635.34;;;9.87;100.00
8641;BME280;4358;42.100;25.222;2022-11-12T08:31:39;101636.47;;;9.80;100.00
8641;BME280;4358;42.100;25.222;2022-11-12T08:34:06;101632.78;;;9.84;100.00
8641;BME280;4358;42.100;25.222;2022-11-12T08:36:37;101623.81;;;9.88;100.00
8641;BME280;4358;42.100;25.222;2022-11-12T08:39:06;101637.47;;;10.01;100.00
8641;BME280;4358;42.100;25.222;2022-11-12T08:41:33;101631.47;;;9.96;100.00
8641;BME280;4358;42.100;25.222;2022-11-12T08:44:00;101628.78;;;9.97;100.00
8641;BME280;4358;42.100;25.222;2022-11-12T08:46:28;101627.47;;;9.84;100.00
8641;BME280;4358;42.100;25.222;2022-11-12T08:48:56;101630.13;;;9.84;100.00
8641;BME280;4358;42.100;25.222;2022-11-12T08:51:23;101647.28;;;9.74;100.00
8641;BME280;4358;42.100;25.222;2022-11-12T08:53:50;101648.00;;;9.79;100.00
8641;BME280;4358;42.100;25.222;2022-11-12T08:56:17;101650.19;;;9.68;100.00
8641;BME280;4358;42.100;25.222;2022-11-12T08:58:43;101660.72;;;9.69;100.00
8641;BME280;4358;42.100;25.222;2022-11-12T09:01:10;101657.97;;;9.72;100.00
8641;BME280;4358;42.100;25.222;2022-11-12T09:03:37;101647.06;;;9.80;100.00
8641;BME280;4358;42.100;25.222;2022-11-12T09:06:06;101644.38;;;9.82;100.00
8641;BME280;4358;42.100;25.222;2022-11-12T09:08:35;101647.16;;;9.78;100.00
8641;BME280;4358;42.100;25.222;2022-11-12T09:11:02;101642.63;;;9.81;100.00
8641;BME280;4358;42.100;25.222;2022-11-12T09:13:29;101643.34;;;9.86;100.00
8641;BME280;4358;42.100;25.222;2022-11-12T09:16:01;101655.41;;;9.94;100.00
8641;BME280;4358;42.100;25.222;2022-11-12T09:18:29;101653.56;;;9.96;100.00
8641;BME280;4358;42.100;25.222;2022-11-12T09:21:00;101659.22;;;9.87;100.00
8641;BME280;4358;42.100;25.222;2022-11-12T09:23:29;101653.06;;;9.85;100.00
8641;BME280;4358;42.100;25.222;2022-11-12T09:25:56;101653.06;;;9.85;100.00
8641;BME280;4358;42.100;25.222;2022-11-12T09:28:23;101653.78;;;9.90;100.00
8641;BME280;4358;42.100;25.222;2022-11-12T09:30:53;101617.69;;;9.86;100.00
8641;BME280;4358;42.100;25.222;2022-11-12T09:33:22;101634.13;;;9.96;100.00
8641;BME280;4358;42.100;25.222;2022-11-12T09:35:50;101636.03;;;9.92;100.00
8641;BME280;4358;42.100;25.222;2022-11-12T09:38:17;101643.06;;;9.93;100.00
8641;BME280;4358;42.100;25.222;2022-11-12T09:41:12;101639.13;;;9.80;100.00
8641;BME280;4358;42.100;25.222;2022-11-12T09:43:44;101647.59;;;9.90;100.00
8641;BME280;4358;42.100;25.222;2022-11-12T09:49:11;101635.50;;;9.83;100.00
8641;BME280;4358;42.100;25.222;2022-11-12T09:51:42;101640.03;;;9.79;100.00
8641;BME280;4358;42.100;25.222;2022-11-12T09:54:18;101639.94;;;9.82;100.00
8641;BME280;4358;42.100;25.222;2022-11-12T09:56:48;101647.72;;;9.87;100.00
8641;BME280;4358;42.100;25.222;2022-11-12T09:59:16;101652.16;;;9.86;100.00
8641;BME280;4358;42.100;25.222;2022-11-12T10:01:51;101657.59;;;9.83;100.00
8641;BME280;4358;42.100;25.222;2022-11-12T10:04:37;101650.88;;;9.73;100.00
8641;BME280;4358;42.100;25.222;2022-11-12T10:07:11;101642.31;;;9.65;100.00
8641;BME280;4358;42.100;25.222;2022-11-12T10:09:49;101641.25;;;9.70;100.00
8641;BME280;4358;42.100;25.222;2022-11-12T10:12:25;101641.59;;;9.61;100.00
8641;BME280;4358;42.100;25.222;2022-11-12T10:15:24;101635.25;;;9.65;100.00
8641;BME280;4358;42.100;25.222;2022-11-12T10:18:14;101635.19;;;9.67;100.00
8641;BME280;4358;42.100;25.222;2022-11-12T10:20:49;101635.97;;;9.69;100.00
8641;BME280;4358;42.100;25.222;2022-11-12T10:23:21;101632.47;;;9.68;100.00
8641;BME280;4358;42.100;25.222;2022-11-12T10:25:52;101634.03;;;9.74;100.00
8641;BME280;4358;42.100;25.222;2022-11-12T10:28:27;101636.16;;;9.64;100.00
8641;BME280;4358;42.100;25.222;2022-11-12T10:31:00;101642.81;;;9.51;100.00
8641;BME280;4358;42.100;25.222;2022-11-12T10:33:31;101660.19;;;9.60;100.00
8641;BME280;4358;42.100;25.222;2022-11-12T10:36:12;101643.25;;;9.64;100.00
8641;BME280;4358;42.100;25.222;2022-11-12T10:38:44;101648.72;;;9.59;100.00
8641;BME280;4358;42.100;25.222;2022-11-12T10:41:22;101659.44;;;9.56;100.00
8641;BME280;4358;42.100;25.222;2022-11-12T10:43:57;101658.88;;;9.47;100.00
8641;BME280;4358;42.100;25.222;2022-11-12T10:46:26;101657.03;;;9.49;100.00
8641;BME280;4358;42.100;25.222;2022-11-12T10:48:57;101651.81;;;9.47;100.00
8641;BME280;4358;42.100;25.222;2022-11-12T10:51:28;101647.41;;;9.46;100.00
8641;BME280;4358;42.100;25.222;2022-11-12T10:53:55;101656.00;;;9.53;100.00
8641;BME280;4358;42.100;25.222;2022-11-12T10:56:25;101647.25;;;9.51;100.00
8641;BME280;4358;42.100;25.222;2022-11-12T10:59:13;101646.97;;;9.58;100.00
8641;BME280;4358;42.100;25.222;2022-11-12T11:01:41;101653.47;;;9.50;100.00
8641;BME280;4358;42.100;25.222;2022-11-12T11:04:16;101654.34;;;9.50;100.00
8641;BME280;4358;42.100;25.222;2022-11-12T11:06:43;101649.19;;;9.46;100.00
8641;BME280;4358;42.100;25.222;2022-11-12T11:09:15;101651.72;;;9.49;100.00
8641;BME280;4358;42.100;25.222;2022-11-12T11:11:49;101652.19;;;9.37;100.00
8641;BME280;4358;42.100;25.222;2022-11-12T11:14:29;101642.31;;;9.40;100.00
8641;BME280;4358;42.100;25.222;2022-11-12T11:16:59;101632.59;;;9.41;100.00
8641;BME280;4358;42.100;25.222;2022-11-12T11:19:32;101646.56;;;9.46;100.00
8641;BME280;4358;42.100;25.222;2022-11-12T11:22:06;101642.16;;;9.45;100.00
8641;BME280;4358;42.100;25.222;2022-11-12T11:24:46;101650.31;;;9.39;100.00
8641;BME280;4358;42.100;25.222;2022-11-12T11:27:26;101638.81;;;9.40;100.00
8641;BME280;4358;42.100;25.222;2022-11-12T11:30:07;101643.28;;;9.38;100.00
8641;BME280;4358;42.100;25.222;2022-11-12T11:32:50;101636.47;;;9.30;100.00
8641;BME280;4358;42.100;25.222;2022-11-12T11:35:26;101617.44;;;9.19;100.00
8641;BME280;4358;42.100;25.222;2022-11-12T11:38:04;101627.63;;;9.31;100.00
8641;BME280;4358;42.100;25.222;2022-11-12T11:40:40;101629.28;;;9.34;100.00
8641;BME280;4358;42.100;25.222;2022-11-12T11:43:39;101618.81;;;9.31;100.00
8641;BME280;4358;42.100;25.222;2022-11-12T11:46:19;101616.19;;;9.29;100.00
8641;BME280;4358;42.100;25.222;2022-11-12T11:49:01;101621.47;;;9.31;100.00
8641;BME280;4358;42.100;25.222;2022-11-12T11:51:39;101618.72;;;9.32;100.00
8641;BME280;4358;42.100;25.222;2022-11-12T11:54:21;101608.91;;;9.36;100.00
8641;BME280;4358;42.100;25.222;2022-11-12T11:56:55;101604.47;;;9.37;100.00
8641;BME280;4358;42.100;25.222;2022-11-12T11:59:32;101610.97;;;9.26;100.00
8641;BME280;4358;42.100;25.222;2022-11-12T12:02:19;101612.69;;;9.29;100.00
8641;BME280;4358;42.100;25.222;2022-11-12T12:04:50;101613.00;;;9.20;100.00
8641;BME280;4358;42.100;25.222;2022-11-12T12:07:26;101600.31;;;9.29;100.00
8641;BME280;4358;42.100;25.222;2022-11-12T12:10:02;101609.66;;;9.40;100.00
8641;BME280;4358;42.100;25.222;2022-11-12T12:12:42;101611.97;;;9.49;100.00
8641;BME280;4358;42.100;25.222;2022-11-12T12:15:37;101609.97;;;9.55;100.00
8641;BME280;4358;42.100;25.222;2022-11-12T12:18:17;101606.28;;;9.59;100.00
8641;BME280;4358;42.100;25.222;2022-11-12T12:20:53;101600.25;;;9.56;100.00
8641;BME280;4358;42.100;25.222;2022-11-12T12:23:26;101607.16;;;9.60;100.00
8641;BME280;4358;42.100;25.222;2022-11-12T12:25:56;101598.16;;;9.64;100.00
8641;BME280;4358;42.100;25.222;2022-11-12T12:28:34;101606.81;;;9.69;100.00
8641;BME280;4358;42.100;25.222;2022-11-12T12:31:07;101613.78;;;9.73;100.00
8641;BME280;4358;42.100;25.222;2022-11-12T12:33:45;101604.78;;;9.77;100.00
8641;BME280;4358;42.100;25.222;2022-11-12T12:36:16;101599.34;;;9.80;100.00
8641;BME280;4358;42.100;25.222;2022-11-12T12:38:48;101586.56;;;9.68;100.00
8641;BME280;4358;42.100;25.222;2022-11-12T12:41:20;101600.44;;;9.74;100.00
8641;BME280;4358;42.100;25.222;2022-11-12T12:43:55;101586.22;;;9.77;100.00
8641;BME280;4358;42.100;25.222;2022-11-12T12:46:24;101584.53;;;9.74;100.00
8641;BME280;4358;42.100;25.222;2022-11-12T12:48:54;101589.31;;;9.65;100.00
8641;BME280;4358;42.100;25.222;2022-11-12T12:51:24;101578.81;;;9.62;100.00
8641;BME280;4358;42.100;25.222;2022-11-12T12:53:54;101589.44;;;9.62;100.00
8641;BME280;4358;42.100;25.222;2022-11-12T12:56:46;101582.38;;;9.61;100.00
8641;BME280;4358;42.100;25.222;2022-11-12T12:59:23;101568.22;;;9.62;100.00
8641;BME280;4358;42.100;25.222;2022-11-12T13:01:56;101571.78;;;9.61;100.00
8641;BME280;4358;42.100;25.222;2022-11-12T13:04:50;101576.22;;;9.60;100.00
8641;BME280;4358;42.100;25.222;2022-11-12T13:07:21;101582.22;;;9.65;100.00
8641;BME280;4358;42.100;25.222;2022-11-12T13:13:25;101569.47;;;9.75;100.00
8641;BME280;4358;42.100;25.222;2022-11-12T13:15:53;101575.69;;;9.74;100.00
8641;BME280;4358;42.100;25.222;2022-11-12T13:21:36;101588.75;;;9.80;100.00